createdAt,value
2022-11-25T00:01:41.813Z,182.10
2022-11-25T00:04:11.197Z,177.60
2022-11-25T00:06:47.236Z,173.80
2022-11-25T00:09:17.022Z,170.90
2022-11-25T00:11:47.164Z,170.60
2022-11-25T00:14:18.432Z,159.00
2022-11-25T00:16:48.813Z,159.10
2022-11-25T00:19:18.245Z,154.40
2022-11-25T00:21:47.445Z,164.60
2022-11-25T00:24:19.343Z,171.50
2022-11-25T00:26:50.146Z,164.30
2022-11-25T00:29:19.338Z,159.70
2022-11-25T00:31:48.468Z,164.20
2022-11-25T00:34:17.767Z,162.20
2022-11-25T00:36:56.770Z,167.80
2022-11-25T00:39:30.370Z,168.70
2022-11-25T00:42:28.180Z,163.30
2022-11-25T00:44:57.318Z,166.90
2022-11-25T00:47:29.551Z,163.20
2022-11-25T00:49:58.794Z,168.40
2022-11-25T00:52:30.302Z,176.50
2022-11-25T00:55:03.591Z,170.50
2022-11-25T00:57:34.155Z,167.10
2022-11-25T01:00:05.940Z,161.50
2022-11-25T01:02:38.503Z,157.20
2022-11-25T01:05:10.510Z,149.70
2022-11-25T01:07:39.587Z,153.90
2022-11-25T01:10:09.394Z,154.30
2022-11-25T01:12:40.784Z,152.00
2022-11-25T01:15:10.478Z,151.80
2022-11-25T01:17:39.689Z,155.10
2022-11-25T01:20:11.642Z,159.20
2022-11-25T01:22:41.830Z,157.50
2022-11-25T01:25:11.353Z,150.40
2022-11-25T01:27:43.229Z,151.50
2022-11-25T01:30:13.724Z,159.50
2022-11-25T01:32:42.966Z,154.00
2022-11-25T01:35:14.243Z,162.70
2022-11-25T01:37:43.392Z,158.10
2022-11-25T01:40:15.831Z,164.70
2022-11-25T01:42:49.485Z,157.00
2022-11-25T01:45:35.103Z,167.40
2022-11-25T01:48:18.843Z,158.10
2022-11-25T01:50:49.904Z,162.80
2022-11-25T01:53:21.591Z,156.40
2022-11-25T01:56:04.081Z,161.50
2022-11-25T01:58:42.494Z,162.40
2022-11-25T02:01:12.214Z,163.70
2022-11-25T02:03:47.866Z,162.20
2022-11-25T02:06:29.040Z,157.90
2022-11-25T02:09:09.420Z,162.60
2022-11-25T02:11:44.140Z,159.00
2022-11-25T02:14:17.187Z,151.90
2022-11-25T02:16:48.695Z,157.00
2022-11-25T02:19:37.261Z,163.30
2022-11-25T02:22:12.245Z,162.00
2022-11-25T02:24:48.921Z,151.00
2022-11-25T02:27:19.683Z,149.10
2022-11-25T02:29:52.509Z,154.20
2022-11-25T02:32:26.816Z,157.30
2022-11-25T02:34:56.063Z,150.80
2022-11-25T02:37:25.724Z,154.50
2022-11-25T02:39:56.007Z,159.20
2022-11-25T02:42:29.297Z,160.00
2022-11-25T02:45:01.136Z,150.90
2022-11-25T02:47:30.532Z,151.30
2022-11-25T02:50:02.434Z,152.60
2022-11-25T02:52:31.971Z,149.00
2022-11-25T02:55:03.460Z,156.90
2022-11-25T02:57:32.664Z,138.50
2022-11-25T03:00:01.959Z,147.40
2022-11-25T03:02:31.310Z,137.40
2022-11-25T03:05:06.121Z,147.80
2022-11-25T03:07:37.500Z,136.00
2022-11-25T03:10:08.407Z,136.00
2022-11-25T03:12:42.449Z,140.20
2022-11-25T03:15:12.366Z,139.00
2022-11-25T03:17:42.303Z,135.40
2022-11-25T03:20:14.542Z,141.30
2022-11-25T03:22:44.285Z,139.80
2022-11-25T03:25:15.027Z,139.20
2022-11-25T03:27:45.345Z,128.10
2022-11-25T03:30:25.138Z,131.80
2022-11-25T03:32:56.547Z,143.60
2022-11-25T03:35:28.001Z,136.10
2022-11-25T03:38:00.039Z,141.10
2022-11-25T03:40:29.223Z,145.70
2022-11-25T03:42:58.199Z,137.10
2022-11-25T03:45:27.367Z,147.10
2022-11-25T03:48:01.286Z,148.40
2022-11-25T03:50:30.436Z,147.40
2022-11-25T03:53:07.593Z,153.00
2022-11-25T03:55:41.727Z,137.70
2022-11-25T03:58:14.017Z,143.20
2022-11-25T04:03:13.554Z,142.20
2022-11-25T04:05:42.892Z,141.70
2022-11-25T04:08:14.420Z,134.60
2022-11-25T04:10:50.793Z,129.50
2022-11-25T04:13:23.105Z,133.50
2022-11-25T04:15:52.967Z,132.90
2022-11-25T04:18:22.383Z,126.00
2022-11-25T04:20:54.293Z,121.30
2022-11-25T04:23:23.488Z,119.40
2022-11-25T04:25:58.275Z,126.70
2022-11-25T04:28:33.362Z,118.30
2022-11-25T04:31:08.171Z,126.30
2022-11-25T04:33:38.811Z,123.90
2022-11-25T04:36:09.220Z,119.60
2022-11-25T04:38:44.633Z,118.00
2022-11-25T04:41:17.228Z,119.60
2022-11-25T04:43:47.241Z,120.10
2022-11-25T04:46:28.494Z,109.30
2022-11-25T04:49:05.064Z,117.80
2022-11-25T04:51:35.619Z,108.00
2022-11-25T04:54:06.565Z,110.70
2022-11-25T04:56:36.233Z,113.00
2022-11-25T04:59:24.223Z,117.20
2022-11-25T05:01:53.365Z,114.20
2022-11-25T05:04:34.722Z,123.80
2022-11-25T05:07:06.833Z,170.10
2022-11-25T05:09:37.383Z,157.60
2022-11-25T05:12:22.997Z,121.50
2022-11-25T05:14:56.710Z,106.70
2022-11-25T05:17:31.243Z,100.50
2022-11-25T05:20:04.884Z,99.90
2022-11-25T05:22:37.886Z,190.80
2022-11-25T05:25:11.058Z,202.90
2022-11-25T05:27:50.144Z,144.50
2022-11-25T05:30:22.414Z,119.10
2022-11-25T05:32:51.805Z,95.60
2022-11-25T05:35:22.076Z,99.60
2022-11-25T05:37:51.180Z,97.40
2022-11-25T05:40:20.330Z,98.70
2022-11-25T05:43:04.031Z,107.20
2022-11-25T05:45:39.743Z,294.20
2022-11-25T05:48:15.756Z,330.30
2022-11-25T05:50:45.117Z,172.70
2022-11-25T05:53:18.518Z,130.50
2022-11-25T05:58:57.688Z,108.90
2022-11-25T06:01:30.123Z,117.60
2022-11-25T06:04:04.739Z,112.80
2022-11-25T06:06:34.019Z,113.60
2022-11-25T06:09:05.231Z,117.60
2022-11-25T06:11:35.374Z,102.80
2022-11-25T06:14:04.505Z,103.80
2022-11-25T06:16:36.461Z,108.10
2022-11-25T06:19:17.375Z,100.80
2022-11-25T06:21:51.729Z,104.90
2022-11-25T06:24:30.624Z,111.40
2022-11-25T06:27:03.591Z,106.50
2022-11-25T06:29:32.906Z,107.50
2022-11-25T06:32:06.008Z,110.50
2022-11-25T06:34:49.759Z,108.40
2022-11-25T06:37:33.695Z,103.20
2022-11-25T06:40:03.919Z,91.30
2022-11-25T06:42:33.845Z,87.00
2022-11-25T06:45:03.020Z,102.90
2022-11-25T06:47:32.733Z,96.50
2022-11-25T06:50:01.885Z,97.00
2022-11-25T06:52:43.538Z,96.00
2022-11-25T06:55:13.556Z,103.40
2022-11-25T06:57:47.970Z,100.50
2022-11-25T07:00:22.468Z,99.30
2022-11-25T07:02:55.969Z,98.50
2022-11-25T07:05:26.084Z,103.80
2022-11-25T07:07:59.044Z,110.90
2022-11-25T07:10:32.655Z,106.40
2022-11-25T07:13:03.924Z,108.60
2022-11-25T07:15:35.310Z,102.20
2022-11-25T07:18:04.776Z,82.10
2022-11-25T07:20:36.512Z,76.00
2022-11-25T07:23:05.748Z,84.10
2022-11-25T07:25:38.656Z,75.20
2022-11-25T07:28:07.617Z,78.40
2022-11-25T07:33:27.873Z,74.20
2022-11-25T07:35:57.126Z,74.20
2022-11-25T07:38:32.232Z,61.90
2022-11-25T07:41:13.696Z,65.20
2022-11-25T07:44:00.611Z,75.70
2022-11-25T07:46:44.056Z,64.90
2022-11-25T07:49:18.381Z,59.50
2022-11-25T07:51:59.914Z,59.30
2022-11-25T07:54:29.208Z,62.50
2022-11-25T07:56:58.368Z,63.80
2022-11-25T07:59:27.869Z,71.50
2022-11-25T08:01:57.106Z,86.70
2022-11-25T08:04:26.304Z,58.10
2022-11-25T08:06:55.471Z,70.70
2022-11-25T08:09:27.204Z,56.80
2022-11-25T08:11:56.481Z,54.80
2022-11-25T08:14:31.148Z,51.80
2022-11-25T08:17:05.776Z,49.70
2022-11-25T08:19:40.706Z,47.20
2022-11-25T08:22:10.399Z,56.30
2022-11-25T08:24:40.085Z,63.00
2022-11-25T08:29:46.055Z,57.20
2022-11-25T08:32:23.488Z,58.00
2022-11-25T08:34:53.862Z,58.30
2022-11-25T08:37:26.513Z,69.30
2022-11-25T08:40:14.686Z,64.40
2022-11-25T08:42:44.367Z,71.90
2022-11-25T08:45:13.737Z,71.40
2022-11-25T08:47:42.944Z,49.30
2022-11-25T08:50:15.083Z,50.50
2022-11-25T08:52:44.412Z,54.80
2022-11-25T08:55:16.891Z,60.80
2022-11-25T08:57:52.829Z,56.10
2022-11-25T09:00:23.223Z,52.80
2022-11-25T09:02:52.760Z,50.80
2022-11-25T09:05:24.332Z,55.90
2022-11-25T09:08:13.307Z,51.50
2022-11-25T09:10:42.817Z,56.70
2022-11-25T09:13:14.325Z,56.70
2022-11-25T09:15:46.425Z,61.30
2022-11-25T09:18:22.517Z,60.50
2022-11-25T09:20:56.152Z,51.80
2022-11-25T09:23:31.190Z,44.90
2022-11-25T09:26:01.849Z,42.90
2022-11-25T09:28:42.699Z,50.90
2022-11-25T09:31:40.824Z,48.70
2022-11-25T09:34:12.067Z,57.40
2022-11-25T09:36:46.625Z,80.80
2022-11-25T09:39:16.121Z,62.50
2022-11-25T09:42:41.103Z,57.10
2022-11-25T09:46:05.533Z,88.60
2022-11-25T09:49:20.554Z,49.60
2022-11-25T09:52:44.180Z,72.90
2022-11-25T09:55:24.081Z,56.00
2022-11-25T09:58:31.349Z,42.60
2022-11-25T10:01:10.145Z,41.90
2022-11-25T10:04:00.181Z,49.40
2022-11-25T10:06:52.059Z,50.00
2022-11-25T10:09:36.538Z,44.30
2022-11-25T10:12:35.176Z,43.80
2022-11-25T10:15:53.115Z,47.80
2022-11-25T10:18:50.533Z,51.80
2022-11-25T10:21:23.408Z,56.70
2022-11-25T10:23:52.782Z,47.80
2022-11-25T10:26:38.460Z,47.20
2022-11-25T10:29:13.871Z,46.10
2022-11-25T10:31:57.064Z,48.60
2022-11-25T10:34:42.323Z,55.90
2022-11-25T10:37:56.287Z,52.20
2022-11-25T10:40:28.670Z,58.60
2022-11-25T10:43:05.252Z,63.80
2022-11-25T10:45:47.448Z,69.00
2022-11-25T10:49:08.020Z,60.10
2022-11-25T10:51:50.180Z,57.30
2022-11-25T10:54:58.944Z,69.10
2022-11-25T10:57:32.163Z,116.00
2022-11-25T11:00:35.375Z,80.30
2022-11-25T11:03:28.845Z,66.70
2022-11-25T11:06:03.667Z,67.40
2022-11-25T11:08:47.200Z,64.60
2022-11-25T11:11:24.339Z,66.50
2022-11-25T11:14:19.547Z,70.20
2022-11-25T11:16:57.440Z,63.50
2022-11-25T11:19:30.381Z,58.80
2022-11-25T11:22:27.987Z,64.00
2022-11-25T11:25:35.819Z,62.20
2022-11-25T11:28:37.316Z,65.00
2022-11-25T11:31:18.326Z,77.50
2022-11-25T11:33:47.553Z,71.80
2022-11-25T11:36:44.735Z,74.40
2022-11-25T11:39:21.029Z,74.90
2022-11-25T11:42:03.455Z,63.50
2022-11-25T11:45:01.986Z,68.00
2022-11-25T11:48:05.289Z,66.30
2022-11-25T11:50:52.367Z,62.90
2022-11-25T11:53:50.228Z,60.30
2022-11-25T11:56:50.638Z,60.80
2022-11-25T12:00:00.166Z,66.00
2022-11-25T12:02:44.028Z,62.20
2022-11-25T12:05:21.212Z,61.80
2022-11-25T12:08:18.203Z,64.00
2022-11-25T12:14:02.547Z,60.30
2022-11-25T12:16:40.872Z,64.40
2022-11-25T12:20:09.917Z,63.10
2022-11-25T12:23:04.284Z,54.90
2022-11-25T12:25:39.427Z,53.20
2022-11-25T12:28:30.999Z,49.50
2022-11-25T12:31:12.096Z,51.60
2022-11-25T12:34:04.400Z,52.30
2022-11-25T12:36:46.813Z,52.70
2022-11-25T12:39:46.619Z,60.40
2022-11-25T12:42:26.538Z,51.50
2022-11-25T12:45:01.209Z,55.30
2022-11-25T12:47:53.648Z,61.00
2022-11-25T12:51:14.566Z,61.70
2022-11-25T12:54:07.163Z,59.10
2022-11-25T12:57:08.460Z,55.90
2022-11-25T13:00:40.663Z,59.10
2022-11-25T13:03:51.494Z,62.10
2022-11-25T13:07:13.108Z,67.60
2022-11-25T13:10:14.440Z,72.30
2022-11-25T13:13:05.304Z,68.70
2022-11-25T13:15:49.116Z,67.00
2022-11-25T13:18:26.224Z,73.00
2022-11-25T13:21:08.715Z,61.10
2022-11-25T13:23:49.944Z,70.20
2022-11-25T13:26:33.995Z,63.60
2022-11-25T13:29:29.468Z,60.10
2022-11-25T13:32:31.427Z,66.90
2022-11-25T13:35:38.168Z,59.60
2022-11-25T13:38:30.636Z,61.10
2022-11-25T13:41:22.327Z,54.90
2022-11-25T13:44:10.482Z,58.80
2022-11-25T13:46:44.392Z,57.60
2022-11-25T13:49:51.797Z,75.10
2022-11-25T13:52:34.566Z,60.30
2022-11-25T13:55:33.794Z,52.10
2022-11-25T13:58:24.257Z,51.90
2022-11-25T14:01:29.958Z,56.00
2022-11-25T14:04:01.163Z,55.40
2022-11-25T14:06:52.798Z,57.70
2022-11-25T14:09:35.501Z,64.10
2022-11-25T14:12:40.852Z,67.80
2022-11-25T14:16:06.921Z,71.70
2022-11-25T14:19:43.299Z,71.90
2022-11-25T14:22:35.931Z,69.40
2022-11-25T14:25:19.184Z,75.60
2022-11-25T14:28:03.648Z,88.20
2022-11-25T14:30:53.588Z,101.10
2022-11-25T14:33:35.922Z,105.80
2022-11-25T14:36:15.876Z,92.70
2022-11-25T14:39:00.002Z,88.90
2022-11-25T14:42:10.126Z,85.10
2022-11-25T14:44:58.503Z,82.90
2022-11-25T14:47:39.213Z,75.20
2022-11-25T14:50:34.162Z,76.90
2022-11-25T14:53:14.951Z,67.40
2022-11-25T14:55:49.146Z,62.80
2022-11-25T14:58:20.662Z,58.20
2022-11-25T15:00:58.170Z,83.20
2022-11-25T15:03:34.231Z,69.30
2022-11-25T15:06:07.097Z,66.50
2022-11-25T15:08:56.113Z,66.40
2022-11-25T15:11:31.732Z,72.50
2022-11-25T15:14:07.183Z,63.40
2022-11-25T15:16:44.904Z,66.60
2022-11-25T15:19:21.124Z,71.20
2022-11-25T15:24:58.664Z,96.20
2022-11-25T15:27:33.369Z,90.00
2022-11-25T15:30:22.152Z,94.60
2022-11-25T15:32:55.331Z,97.70
2022-11-25T15:35:27.369Z,96.60
2022-11-25T15:40:43.177Z,87.20
2022-11-25T15:43:31.945Z,84.10
2022-11-25T15:46:14.988Z,80.00
2022-11-25T15:48:50.229Z,86.40
2022-11-25T15:51:36.164Z,77.30
2022-11-25T15:54:19.937Z,80.50
2022-11-25T15:57:16.264Z,77.60
2022-11-25T15:59:52.642Z,77.60
2022-11-25T16:02:34.969Z,76.50
2022-11-25T16:05:16.337Z,75.30
2022-11-25T16:07:50.863Z,74.20
2022-11-25T16:10:23.090Z,74.10
2022-11-25T16:16:02.884Z,73.60
2022-11-25T16:18:42.513Z,73.40
2022-11-25T16:21:23.580Z,71.40
2022-11-25T16:24:11.704Z,63.80
2022-11-25T16:26:54.186Z,73.90
2022-11-25T16:29:56.816Z,70.20
2022-11-25T16:32:33.505Z,71.30
2022-11-25T16:35:20.689Z,68.90
2022-11-25T16:37:49.930Z,82.50
2022-11-25T16:40:19.353Z,71.10
2022-11-25T16:42:50.379Z,74.10
2022-11-25T16:45:26.475Z,78.70
2022-11-25T16:47:56.810Z,76.70
2022-11-25T16:50:25.767Z,74.90
2022-11-25T16:52:56.087Z,69.20
2022-11-25T16:55:26.710Z,72.80
2022-11-25T16:57:55.695Z,76.40
2022-11-25T17:00:27.009Z,71.80
2022-11-25T17:02:56.231Z,73.00
2022-11-25T17:05:29.079Z,79.00
2022-11-25T17:07:58.422Z,75.50
2022-11-25T17:10:27.721Z,68.50
2022-11-25T17:12:59.234Z,88.10
2022-11-25T17:15:42.328Z,104.50
2022-11-25T17:18:15.408Z,128.40
2022-11-25T17:20:46.146Z,162.00
2022-11-25T17:23:22.430Z,161.30
2022-11-25T17:25:56.621Z,167.70
2022-11-25T17:28:28.346Z,162.00
2022-11-25T17:30:57.568Z,166.40
2022-11-25T17:33:28.284Z,163.20
2022-11-25T17:35:58.941Z,158.10
2022-11-25T17:38:30.417Z,142.30
2022-11-25T17:41:01.301Z,138.20
2022-11-25T17:43:34.837Z,139.10
2022-11-25T17:46:16.141Z,135.70
2022-11-25T17:48:48.817Z,128.80
2022-11-25T17:51:20.945Z,125.70
2022-11-25T17:53:50.067Z,124.40
2022-11-25T17:56:30.171Z,125.70
2022-11-25T17:59:06.598Z,131.70
2022-11-25T18:01:39.142Z,145.10
2022-11-25T18:04:25.719Z,144.30
2022-11-25T18:07:05.395Z,148.70
2022-11-25T18:09:38.862Z,137.80
2022-11-25T18:12:28.223Z,133.30
2022-11-25T18:14:57.809Z,142.00
2022-11-25T18:17:26.893Z,144.00
2022-11-25T18:19:58.851Z,163.20
2022-11-25T18:22:30.630Z,158.40
2022-11-25T18:25:10.780Z,162.40
2022-11-25T18:27:59.951Z,154.10
2022-11-25T18:30:38.632Z,163.40
2022-11-25T18:33:16.257Z,210.70
2022-11-25T18:35:59.594Z,319.70
2022-11-25T18:38:28.935Z,215.80
2022-11-25T18:41:24.761Z,193.20
2022-11-25T18:44:33.200Z,164.60
2022-11-25T18:47:28.369Z,150.30
2022-11-25T18:50:31.938Z,154.50
2022-11-25T18:53:13.831Z,149.20
2022-11-25T18:55:47.861Z,142.90
2022-11-25T18:58:28.422Z,152.80
2022-11-25T19:01:17.852Z,158.80
2022-11-25T19:04:00.427Z,151.50
2022-11-25T19:06:36.050Z,147.30
2022-11-25T19:09:08.611Z,155.60
2022-11-25T19:12:01.135Z,193.30
2022-11-25T19:14:56.993Z,250.60
2022-11-25T19:17:28.460Z,254.10
2022-11-25T19:20:01.916Z,246.80
2022-11-25T19:22:38.208Z,234.60
2022-11-25T19:25:10.739Z,246.40
2022-11-25T19:27:45.703Z,247.50
2022-11-25T19:30:18.812Z,245.20
2022-11-25T19:32:50.524Z,266.80
2022-11-25T19:35:35.828Z,259.10
2022-11-25T19:38:28.558Z,246.50
2022-11-25T19:40:58.063Z,273.20
2022-11-25T19:43:27.867Z,270.90
2022-11-25T19:45:59.129Z,259.60
2022-11-25T19:48:38.813Z,277.30
2022-11-25T19:51:09.529Z,279.30
2022-11-25T19:53:49.394Z,268.10
2022-11-25T19:56:27.064Z,269.90
2022-11-25T19:59:09.582Z,281.50
2022-11-25T20:01:46.413Z,279.30
2022-11-25T20:04:22.735Z,266.30
2022-11-25T20:06:51.900Z,284.10
2022-11-25T20:09:21.100Z,290.70
2022-11-25T20:11:56.463Z,261.30
2022-11-25T20:14:25.923Z,266.50
2022-11-25T20:16:54.976Z,230.70
2022-11-25T20:19:24.022Z,243.80
2022-11-25T20:21:54.311Z,253.40
2022-11-25T20:24:27.229Z,269.90
2022-11-25T20:26:59.416Z,271.80
2022-11-25T20:29:31.173Z,262.10
2022-11-25T20:32:34.734Z,269.50
2022-11-25T20:35:11.463Z,256.50
2022-11-25T20:37:51.407Z,257.30
2022-11-25T20:40:33.224Z,264.30
2022-11-25T20:43:20.992Z,254.10
2022-11-25T20:45:53.870Z,257.20
2022-11-25T20:48:25.675Z,245.20
2022-11-25T20:51:02.105Z,268.30
2022-11-25T20:53:32.498Z,269.80
2022-11-25T20:56:04.138Z,263.10
2022-11-25T20:58:50.843Z,246.50
2022-11-25T21:01:24.041Z,248.30
2022-11-25T21:03:54.219Z,253.30
2022-11-25T21:06:52.510Z,241.90
2022-11-25T21:09:34.630Z,222.90
2022-11-25T21:12:19.577Z,227.30
2022-11-25T21:14:51.635Z,217.70
2022-11-25T21:17:21.574Z,209.00
2022-11-25T21:19:55.059Z,199.20
2022-11-25T21:22:29.574Z,199.80
2022-11-25T21:25:01.117Z,204.50
2022-11-25T21:27:32.997Z,234.90
2022-11-25T21:30:37.524Z,214.60
2022-11-25T21:33:21.441Z,206.80
2022-11-25T21:36:08.658Z,209.60
2022-11-25T21:38:53.026Z,213.00
2022-11-25T21:42:12.197Z,227.40
2022-11-25T21:44:52.634Z,209.40
2022-11-25T21:47:29.982Z,223.30
2022-11-25T21:50:18.604Z,214.60
2022-11-25T21:53:18.731Z,218.80
2022-11-25T21:56:51.016Z,218.10
2022-11-25T22:00:02.519Z,213.50
2022-11-25T22:02:46.087Z,214.60
2022-11-25T22:05:30.649Z,215.60
2022-11-25T22:09:04.081Z,210.70
2022-11-25T22:11:41.306Z,205.60
2022-11-25T22:14:40.495Z,202.10
2022-11-25T22:17:18.241Z,200.10
2022-11-25T22:19:47.782Z,204.90
2022-11-25T22:22:18.079Z,191.90
2022-11-25T22:24:48.969Z,189.40
2022-11-25T22:27:28.723Z,205.60
2022-11-25T22:30:00.001Z,203.10
2022-11-25T22:32:29.331Z,193.80
2022-11-25T22:35:01.066Z,186.50
2022-11-25T22:37:31.616Z,186.60
2022-11-25T22:40:00.813Z,207.70
2022-11-25T22:42:32.813Z,232.20
2022-11-25T22:47:41.917Z,224.90
2022-11-25T22:50:27.720Z,234.90
2022-11-25T22:52:58.345Z,219.60
2022-11-25T22:55:32.172Z,214.90
2022-11-25T22:58:04.922Z,207.50
2022-11-25T23:00:42.803Z,206.80
2022-11-25T23:03:20.090Z,201.60
2022-11-25T23:05:51.659Z,203.00
2022-11-25T23:08:32.010Z,204.50
2022-11-25T23:11:01.328Z,192.10
2022-11-25T23:13:31.377Z,198.10
2022-11-25T23:16:04.682Z,207.80
2022-11-25T23:18:39.846Z,210.90
2022-11-25T23:21:23.618Z,185.20
2022-11-25T23:23:53.003Z,188.20
2022-11-25T23:26:29.861Z,186.50
2022-11-25T23:29:05.940Z,186.70
2022-11-25T23:31:38.543Z,181.40
2022-11-25T23:34:11.923Z,197.40
2022-11-25T23:36:47.503Z,187.90
2022-11-25T23:39:26.684Z,188.80
2022-11-25T23:41:56.444Z,191.80
2022-11-25T23:44:31.124Z,190.10
2022-11-25T23:47:06.752Z,185.00
2022-11-25T23:49:44.668Z,178.10
2022-11-25T23:52:22.879Z,180.00
2022-11-25T23:54:53.406Z,178.10
2022-11-25T23:57:31.659Z,175.60
